x

North Equatorial Two - 890 Nm East Of Martinique (41041) Wave Buoy

5:50pm - Wed 16th Apr 2014 All times are UTC.

  • Sig Wave height 5.6ft
  • Swell Direction
  • Peak Period 6s
  • Average Period 5s
  • Wind
    18mph, 20mph gusts
  • Sea Temp 77°f
  • Air Temp 76°f
  • Sea Pressure 1014.4mb

More Historic Weather Station data

Upgrade to MSW Pro to gain access to the past 30 days of data for over 8000 Wavebouys and Weather Stations around the globe.

Join Pro

Comparision Forecast

View Surf forecast
   
Wed 04/16 5:50pm 5.5ft 6s 5s 18 20 mph 1014.4mb 77f 76f
4:50pm 5ft 6s 5s 18 20 mph 1014.8mb 77f 76f
3:50pm 5ft 6s 5s 16 20 mph 1015.6mb 77f 75f
2:50pm 5ft 7s 5s 13 18 mph 1016.3mb 77f 72f
1:50pm 5ft 6s 5s 20 22 mph 1016.5mb 77f 74f
12:50pm 5ft 6s 5s 18 20 mph 1016.3mb 77f 75f
11:50am 5ft 6s 5s 20 22 mph 1016.3mb 77f 75f
10:50am 5ft 6s 5s 20 22 mph 1015.7mb 77f 75f
9:50am 5ft 6s 5s 16 18 mph 1015.1mb 77f 75f
8:50am 5ft 6s 5s 18 20 mph 1014.7mb 77f 75f
7:50am 5ft 9s 5s 9
mph
1014.7mb 77f 73f
6:50am 5ft 6s 5s 18 20 mph 1014.3mb 77f 74f
5:50am 5ft 6s 5s 18 20 mph 1014.1mb 77f 74f
4:50am 5ft 9s 5s 16 18 mph 1014.6mb 77f 75f
3:50am 5ft 6s 5s 18 22 mph 1015.2mb 77f 75f
2:50am 5ft 9s 5s 18 20 mph 1015.8mb 77f 75f
1:50am 5ft 9s 6s 18 20 mph 1016.1mb 77f 75f
12:50am 6ft 6s 6s 16 20 mph 1016.1mb 77f 76f
Tue 04/15 11:50pm 5ft 6s 5s 16 20 mph 1015.6mb 77f 76f
10:50pm 5ft 9s 6s 18 20 mph 1015mb 77f 75f
9:50pm 5ft 9s 6s 16 20 mph 1014.3mb 77f 76f
8:50pm 5ft 9s 6s 16 18 mph 1013.8mb 77f 76f
7:50pm 5ft 9s 6s 16 18 mph 1013.4mb 77f 76f
6:50pm 5ft 9s 5s 13 18 mph 1013.4mb 77f 76f
5:50pm 6ft 9s 6s 13 18 mph 1013.7mb 77f 76f
4:50pm 5ft 9s 6s 16 18 mph 1014.2mb 77f 75f
3:50pm 6ft 9s 6s 16 18 mph 1015.1mb 77f 76f
2:50pm 5.5ft 9s 6s 13 16 mph 1015.6mb 77f 76f
1:50pm 5.5ft 10s 6s 16 18 mph 1015.9mb 77f 76f
12:50pm 5ft 9s 6s 13 18 mph 1016.1mb 77f 75f
11:50am 5ft 10s 6s 13 16 mph 1015.9mb 77f 75f
10:50am 5ft 10s 6s 13 16 mph 1015.5mb 77f 74f
9:50am 5ft 9s 6s 16 20 mph 1015mb 77f 74f
8:50am 5ft 10s 6s 13 18 mph 1014.3mb 77f 75f
7:50am 5ft 10s 6s 13 18 mph 1013.4mb 77f 75f
6:50am 4.5ft 10s 6s 13 16 mph 1013.4mb 77f 75f
5:50am 4.5ft 10s 5s 16 18 mph 1013.5mb 77f 75f
4:50am 4.5ft 11s 5s 18 20 mph 1013.9mb 77f 75f
3:50am 4.5ft 10s 5s 16 18 mph 1014.8mb 77f 75f
2:50am 4.5ft 10s 5s 16 18 mph 1015.7mb 77f 75f
1:50am 4.5ft 10s 6s 18 20 mph 1015.9mb 77f 75f
12:50am 4.5ft 9s 5s 18 20 mph 1015.7mb 77f 75f
Mon 04/14 11:50pm 4.5ft 10s 6s 18 20 mph 1015.2mb 77f 75f
10:50pm 4.5ft 9s 6s 18 20 mph 1014.7mb 77f 76f
9:50pm 4.5ft 10s 6s 16 22 mph 1013.9mb 77f 76f
8:50pm 4ft 10s 6s 16 18 mph 1013.5mb 77f 76f
7:50pm 4.5ft 10s 5s 13 16 mph 1013.1mb 77f 76f
6:50pm 4ft 11s 5s 13 18 mph 1013.3mb 77f 76f
5:50pm 4ft 10s 5s 13 18 mph 1013.6mb 77f 76f
4:50pm 4ft 11s 5s 13 16 mph 1014.3mb 77f 75f
3:50pm 4ft 11s 5s 11 16 mph 1015mb 77f 76f
2:50pm 3.5ft 11s 5s 13 16 mph 1015.5mb 77f 76f
1:50pm 4ft 10s 5s 13 18 mph 1015.9mb 77f 76f
11:50am 3.5ft 11s 6s 13 16 mph 1015.7mb 77f 75f
10:50am 3.5ft 10s 6s 11 16 mph 1015.3mb 77f 75f
9:50am 3.5ft 11s 6s 11 16 mph 1014.8mb 77f 75f
8:50am 3.5ft 10s 6s 11 13 mph 1014.2mb 77f 74f
7:50am 4ft 8s 6s 11 13 mph 1014mb 77f 74f
6:50am 4ft 9s 6s 11 13 mph 1013.8mb 77f 74f
5:50am 4ft 11s 6s 11 13 mph 1013.8mb 77f 74f
4:50am 4ft 9s 6s 13 16 mph 1014.4mb 77f 75f
3:50am 3.5ft 11s 5s 13 16 mph 1015.2mb 77f 75f
2:50am 4ft 11s 6s 16 18 mph 1016mb 77f 75f
1:50am 4ft 9s 6s 16 18 mph 1016.5mb 77f 75f
12:50am 3.5ft 12s 6s 16 18 mph 1016.6mb 77f 75f
Sun 04/13 11:50pm 4ft 11s 6s 13 16 mph 1016.2mb 77f 75f
10:50pm 3.5ft 11s 6s 11 16 mph 1015.9mb 77f 75f
9:50pm 4ft 8s 6s 11 13 mph 1015.2mb 77f 75f
8:50pm 3.5ft 9s 6s 11 13 mph 1014.5mb 77f 75f
7:50pm 4ft 9s 6s 11 13 mph 1014mb 78f 76f
6:50pm 4ft 9s 6s 11 13 mph 1013.7mb 78f 75f
5:50pm 4ft 8s 6s 11 13 mph 1013.9mb 78f 75f
4:50pm 4.5ft 8s 6s 11 13 mph 1014.4mb 78f 75f
3:50pm 4.5ft 8s 6s 11 13 mph 1015.3mb 77f 76f
2:50pm 4.5ft 8s 6s 11 13 mph 1016.2mb 77f 76f
1:50pm 4.5ft 9s 6s 11 13 mph 1016.6mb 77f 76f
12:50pm 4.5ft 8s 6s 13 16 mph 1016.6mb 77f 76f
11:50am 4.5ft 9s 6s 16 18 mph 1016.5mb 77f 76f
10:50am 4.5ft 9s 6s 13 16 mph 1015.9mb 77f 75f
9:50am 4.5ft 8s 6s 13 16 mph 1015.1mb 77f 75f
8:50am 4.5ft 8s 6s 13 16 mph 1014.4mb 77f 75f
7:50am 4.5ft 9s 6s 16 18 mph 1013.9mb 77f 75f
6:50am 4.5ft 9s 6s 16 18 mph 1013.5mb 77f 75f
5:50am 4.5ft 9s 6s 16 18 mph 1014mb 77f 75f
4:50am 4.5ft 9s 5s 16 20 mph 1014.5mb 77f 75f
3:50am 4.5ft 9s 5s 16 18 mph 1015.5mb 77f 75f
2:50am 5ft 9s 6s 16 18 mph 1016.1mb 77f 75f
1:50am 5ft 9s 6s 16 18 mph 1016.5mb 77f 75f
12:50am 5ft 9s 6s 16 18 mph 1016.4mb 77f 75f
Sat 04/12 11:50pm 4.5ft 10s 6s 13 16 mph 1016mb 77f 76f
10:50pm 4.5ft 9s 6s 16 20 mph 1015.5mb 77f 75f
9:50pm 4.5ft 8s 6s 11 16 mph 1015.2mb 77f 75f
8:50pm 4.5ft 9s 6s 11 13 mph 1014.5mb 77f 76f
7:50pm 5ft 8s 6s 11 13 mph 1014.2mb 78f 76f